sensor_id;sensor_type;location;lat;lon;timestamp;P1;durP1;ratioP1;P2;durP2;ratioP2
1308;SDS011;647;48.840;9.314;2023-01-08T00:02:12;71.22;;;13.45;;
1308;SDS011;647;48.840;9.314;2023-01-08T00:04:40;73.18;;;14.05;;
1308;SDS011;647;48.840;9.314;2023-01-08T00:07:07;72.45;;;15.45;;
1308;SDS011;647;48.840;9.314;2023-01-08T00:09:34;69.75;;;13.43;;
1308;SDS011;647;48.840;9.314;2023-01-08T00:12:01;70.55;;;14.43;;
1308;SDS011;647;48.840;9.314;2023-01-08T00:14:28;71.57;;;13.77;;
1308;SDS011;647;48.840;9.314;2023-01-08T00:16:56;71.63;;;14.52;;
1308;SDS011;647;48.840;9.314;2023-01-08T00:19:23;71.07;;;13.90;;
1308;SDS011;647;48.840;9.314;2023-01-08T00:21:51;69.72;;;13.80;;
1308;SDS011;647;48.840;9.314;2023-01-08T00:24:18;71.22;;;14.48;;
1308;SDS011;647;48.840;9.314;2023-01-08T00:26:45;72.25;;;15.52;;
1308;SDS011;647;48.840;9.314;2023-01-08T00:29:12;73.75;;;14.85;;
1308;SDS011;647;48.840;9.314;2023-01-08T00:31:40;73.40;;;13.80;;
1308;SDS011;647;48.840;9.314;2023-01-08T00:34:07;72.95;;;15.73;;
1308;SDS011;647;48.840;9.314;2023-01-08T00:36:34;70.75;;;13.45;;
1308;SDS011;647;48.840;9.314;2023-01-08T00:39:03;72.57;;;14.68;;
1308;SDS011;647;48.840;9.314;2023-01-08T00:41:30;72.50;;;14.57;;
1308;SDS011;647;48.840;9.314;2023-01-08T00:43:57;72.10;;;15.20;;
1308;SDS011;647;48.840;9.314;2023-01-08T00:46:24;70.32;;;14.05;;
1308;SDS011;647;48.840;9.314;2023-01-08T00:48:52;71.32;;;13.65;;
1308;SDS011;647;48.840;9.314;2023-01-08T00:51:19;72.47;;;14.02;;
1308;SDS011;647;48.840;9.314;2023-01-08T00:53:46;70.53;;;13.38;;
1308;SDS011;647;48.840;9.314;2023-01-08T00:56:14;69.03;;;14.05;;
1308;SDS011;647;48.840;9.314;2023-01-08T00:58:41;72.88;;;14.23;;
1308;SDS011;647;48.840;9.314;2023-01-08T01:01:09;71.35;;;14.35;;
1308;SDS011;647;48.840;9.314;2023-01-08T01:03:36;71.45;;;13.73;;
1308;SDS011;647;48.840;9.314;2023-01-08T01:06:04;72.15;;;14.68;;
1308;SDS011;647;48.840;9.314;2023-01-08T01:08:31;69.63;;;13.88;;
1308;SDS011;647;48.840;9.314;2023-01-08T01:10:58;70.60;;;14.15;;
1308;SDS011;647;48.840;9.314;2023-01-08T01:13:27;71.93;;;13.60;;
1308;SDS011;647;48.840;9.314;2023-01-08T01:15:57;69.07;;;13.05;;
1308;SDS011;647;48.840;9.314;2023-01-08T01:18:24;70.35;;;13.45;;
1308;SDS011;647;48.840;9.314;2023-01-08T01:20:51;70.15;;;14.15;;
1308;SDS011;647;48.840;9.314;2023-01-08T01:23:19;69.80;;;12.73;;
1308;SDS011;647;48.840;9.314;2023-01-08T01:25:46;70.15;;;13.45;;
1308;SDS011;647;48.840;9.314;2023-01-08T01:28:13;69.97;;;13.55;;
1308;SDS011;647;48.840;9.314;2023-01-08T01:30:41;72.57;;;12.55;;
1308;SDS011;647;48.840;9.314;2023-01-08T01:33:08;70.57;;;12.93;;
1308;SDS011;647;48.840;9.314;2023-01-08T01:35:35;70.80;;;13.35;;
1308;SDS011;647;48.840;9.314;2023-01-08T01:38:03;72.18;;;13.45;;
1308;SDS011;647;48.840;9.314;2023-01-08T01:40:30;70.88;;;13.60;;
1308;SDS011;647;48.840;9.314;2023-01-08T01:42:57;71.03;;;14.48;;
1308;SDS011;647;48.840;9.314;2023-01-08T01:45:25;69.72;;;12.77;;
1308;SDS011;647;48.840;9.314;2023-01-08T01:47:54;70.47;;;14.30;;
1308;SDS011;647;48.840;9.314;2023-01-08T01:50:24;71.93;;;14.55;;
1308;SDS011;647;48.840;9.314;2023-01-08T01:52:53;73.53;;;15.00;;
1308;SDS011;647;48.840;9.314;2023-01-08T01:55:22;70.45;;;13.77;;
1308;SDS011;647;48.840;9.314;2023-01-08T01:57:51;69.88;;;13.95;;
1308;SDS011;647;48.840;9.314;2023-01-08T02:00:18;69.82;;;13.65;;
1308;SDS011;647;48.840;9.314;2023-01-08T02:02:47;68.45;;;12.68;;
1308;SDS011;647;48.840;9.314;2023-01-08T02:05:16;68.18;;;12.15;;
1308;SDS011;647;48.840;9.314;2023-01-08T02:07:44;70.13;;;12.50;;
1308;SDS011;647;48.840;9.314;2023-01-08T02:10:15;67.90;;;12.20;;
1308;SDS011;647;48.840;9.314;2023-01-08T02:12:43;68.20;;;12.60;;
1308;SDS011;647;48.840;9.314;2023-01-08T02:15:13;68.25;;;12.20;;
1308;SDS011;647;48.840;9.314;2023-01-08T02:17:43;69.88;;;13.57;;
1308;SDS011;647;48.840;9.314;2023-01-08T02:20:11;69.95;;;13.48;;
1308;SDS011;647;48.840;9.314;2023-01-08T02:22:45;68.50;;;13.23;;
1308;SDS011;647;48.840;9.314;2023-01-08T02:25:18;70.45;;;13.27;;
1308;SDS011;647;48.840;9.314;2023-01-08T02:27:50;71.70;;;14.13;;
1308;SDS011;647;48.840;9.314;2023-01-08T02:30:18;69.50;;;14.20;;
1308;SDS011;647;48.840;9.314;2023-01-08T02:32:45;69.32;;;13.48;;
1308;SDS011;647;48.840;9.314;2023-01-08T02:35:12;70.93;;;13.23;;
1308;SDS011;647;48.840;9.314;2023-01-08T02:37:39;68.93;;;13.25;;
1308;SDS011;647;48.840;9.314;2023-01-08T02:40:10;71.20;;;14.13;;
1308;SDS011;647;48.840;9.314;2023-01-08T02:42:40;71.80;;;12.20;;
1308;SDS011;647;48.840;9.314;2023-01-08T02:45:13;70.72;;;12.70;;
1308;SDS011;647;48.840;9.314;2023-01-08T02:47:43;69.47;;;12.98;;
1308;SDS011;647;48.840;9.314;2023-01-08T02:50:15;67.90;;;13.65;;
1308;SDS011;647;48.840;9.314;2023-01-08T02:52:47;68.07;;;12.00;;
1308;SDS011;647;48.840;9.314;2023-01-08T02:55:15;68.63;;;12.20;;
1308;SDS011;647;48.840;9.314;2023-01-08T02:57:43;67.65;;;12.00;;
1308;SDS011;647;48.840;9.314;2023-01-08T03:00:12;69.85;;;11.88;;
1308;SDS011;647;48.840;9.314;2023-01-08T03:02:39;67.55;;;12.10;;
1308;SDS011;647;48.840;9.314;2023-01-08T03:05:10;68.10;;;11.90;;
1308;SDS011;647;48.840;9.314;2023-01-08T03:07:39;65.88;;;10.52;;
1308;SDS011;647;48.840;9.314;2023-01-08T03:10:06;70.20;;;11.02;;
1308;SDS011;647;48.840;9.314;2023-01-08T03:12:36;66.82;;;11.27;;
1308;SDS011;647;48.840;9.314;2023-01-08T03:15:07;70.63;;;11.27;;
1308;SDS011;647;48.840;9.314;2023-01-08T03:17:37;68.20;;;12.18;;
1308;SDS011;647;48.840;9.314;2023-01-08T03:20:06;67.80;;;11.30;;
1308;SDS011;647;48.840;9.314;2023-01-08T03:22:34;68.20;;;11.48;;
1308;SDS011;647;48.840;9.314;2023-01-08T03:25:04;67.07;;;11.70;;
1308;SDS011;647;48.840;9.314;2023-01-08T03:27:32;65.40;;;10.18;;
1308;SDS011;647;48.840;9.314;2023-01-08T03:30:00;69.93;;;11.65;;
1308;SDS011;647;48.840;9.314;2023-01-08T03:32:29;67.50;;;9.80;;
1308;SDS011;647;48.840;9.314;2023-01-08T03:34:57;64.70;;;9.75;;
1308;SDS011;647;48.840;9.314;2023-01-08T03:37:27;67.75;;;10.73;;
1308;SDS011;647;48.840;9.314;2023-01-08T03:39:56;64.40;;;10.25;;
1308;SDS011;647;48.840;9.314;2023-01-08T03:42:26;65.63;;;9.63;;
1308;SDS011;647;48.840;9.314;2023-01-08T03:44:54;66.05;;;10.63;;
1308;SDS011;647;48.840;9.314;2023-01-08T03:47:21;67.85;;;10.52;;
1308;SDS011;647;48.840;9.314;2023-01-08T03:49:49;68.07;;;10.73;;
1308;SDS011;647;48.840;9.314;2023-01-08T03:52:21;64.47;;;9.13;;
1308;SDS011;647;48.840;9.314;2023-01-08T03:54:48;66.30;;;10.37;;
1308;SDS011;647;48.840;9.314;2023-01-08T03:57:15;64.85;;;9.45;;
1308;SDS011;647;48.840;9.314;2023-01-08T03:59:42;69.83;;;11.30;;
1308;SDS011;647;48.840;9.314;2023-01-08T04:02:10;65.15;;;9.60;;
1308;SDS011;647;48.840;9.314;2023-01-08T04:04:37;67.90;;;11.48;;
1308;SDS011;647;48.840;9.314;2023-01-08T04:07:04;67.10;;;10.98;;
1308;SDS011;647;48.840;9.314;2023-01-08T04:09:33;65.75;;;9.95;;
1308;SDS011;647;48.840;9.314;2023-01-08T04:12:00;64.30;;;9.50;;
1308;SDS011;647;48.840;9.314;2023-01-08T04:14:27;65.22;;;9.73;;
1308;SDS011;647;48.840;9.314;2023-01-08T04:16:54;67.07;;;9.35;;
1308;SDS011;647;48.840;9.314;2023-01-08T04:19:21;65.13;;;9.48;;
1308;SDS011;647;48.840;9.314;2023-01-08T04:21:48;64.82;;;9.75;;
1308;SDS011;647;48.840;9.314;2023-01-08T04:24:15;66.97;;;10.57;;
1308;SDS011;647;48.840;9.314;2023-01-08T04:26:44;64.85;;;9.85;;
1308;SDS011;647;48.840;9.314;2023-01-08T04:29:11;65.97;;;10.13;;
1308;SDS011;647;48.840;9.314;2023-01-08T04:31:38;64.60;;;10.25;;
1308;SDS011;647;48.840;9.314;2023-01-08T04:34:05;67.20;;;9.85;;
1308;SDS011;647;48.840;9.314;2023-01-08T04:36:32;64.60;;;9.18;;
1308;SDS011;647;48.840;9.314;2023-01-08T04:39:00;64.95;;;10.00;;
1308;SDS011;647;48.840;9.314;2023-01-08T04:41:27;66.47;;;9.90;;
1308;SDS011;647;48.840;9.314;2023-01-08T04:43:55;64.60;;;9.27;;
1308;SDS011;647;48.840;9.314;2023-01-08T04:46:22;66.80;;;10.40;;
1308;SDS011;647;48.840;9.314;2023-01-08T04:48:49;63.95;;;9.52;;
1308;SDS011;647;48.840;9.314;2023-01-08T04:51:16;64.07;;;9.40;;
1308;SDS011;647;48.840;9.314;2023-01-08T04:53:44;67.97;;;9.55;;
1308;SDS011;647;48.840;9.314;2023-01-08T04:56:11;64.43;;;9.88;;
1308;SDS011;647;48.840;9.314;2023-01-08T04:58:38;64.10;;;9.20;;
1308;SDS011;647;48.840;9.314;2023-01-08T05:01:16;65.70;;;9.63;;
1308;SDS011;647;48.840;9.314;2023-01-08T05:03:44;65.43;;;9.47;;
1308;SDS011;647;48.840;9.314;2023-01-08T05:06:11;63.65;;;9.05;;
1308;SDS011;647;48.840;9.314;2023-01-08T05:08:38;63.87;;;9.23;;
1308;SDS011;647;48.840;9.314;2023-01-08T05:11:05;63.78;;;8.80;;
1308;SDS011;647;48.840;9.314;2023-01-08T05:13:32;63.20;;;8.95;;
1308;SDS011;647;48.840;9.314;2023-01-08T05:15:59;63.67;;;8.70;;
1308;SDS011;647;48.840;9.314;2023-01-08T05:18:28;63.80;;;9.03;;
1308;SDS011;647;48.840;9.314;2023-01-08T05:20:58;64.00;;;8.73;;
1308;SDS011;647;48.840;9.314;2023-01-08T05:23:25;64.37;;;8.20;;
1308;SDS011;647;48.840;9.314;2023-01-08T05:25:52;63.30;;;9.07;;
1308;SDS011;647;48.840;9.314;2023-01-08T05:28:22;61.97;;;7.25;;
1308;SDS011;647;48.840;9.314;2023-01-08T05:30:49;61.57;;;7.57;;
1308;SDS011;647;48.840;9.314;2023-01-08T05:33:16;61.50;;;6.37;;
1308;SDS011;647;48.840;9.314;2023-01-08T05:35:44;60.53;;;6.00;;
1308;SDS011;647;48.840;9.314;2023-01-08T05:38:12;60.97;;;6.77;;
1308;SDS011;647;48.840;9.314;2023-01-08T05:40:39;59.20;;;5.17;;
1308;SDS011;647;48.840;9.314;2023-01-08T05:43:06;60.37;;;5.10;;
1308;SDS011;647;48.840;9.314;2023-01-08T05:45:33;60.43;;;4.60;;
1308;SDS011;647;48.840;9.314;2023-01-08T05:48:03;59.00;;;4.07;;
1308;SDS011;647;48.840;9.314;2023-01-08T05:50:30;59.40;;;4.30;;
1308;SDS011;647;48.840;9.314;2023-01-08T05:52:59;59.03;;;3.63;;
1308;SDS011;647;48.840;9.314;2023-01-08T05:55:26;61.67;;;4.03;;
1308;SDS011;647;48.840;9.314;2023-01-08T05:57:53;59.20;;;4.50;;
1308;SDS011;647;48.840;9.314;2023-01-08T06:03:23;58.07;;;3.20;;
1308;SDS011;647;48.840;9.314;2023-01-08T06:05:50;58.30;;;3.40;;
1308;SDS011;647;48.840;9.314;2023-01-08T06:08:19;59.13;;;3.60;;
1308;SDS011;647;48.840;9.314;2023-01-08T06:10:46;58.27;;;3.80;;
1308;SDS011;647;48.840;9.314;2023-01-08T06:13:13;57.17;;;3.33;;
1308;SDS011;647;48.840;9.314;2023-01-08T06:15:40;57.23;;;3.37;;
1308;SDS011;647;48.840;9.314;2023-01-08T06:18:07;58.40;;;3.67;;
1308;SDS011;647;48.840;9.314;2023-01-08T06:20:34;57.77;;;3.00;;
1308;SDS011;647;48.840;9.314;2023-01-08T06:23:01;58.10;;;3.47;;
1308;SDS011;647;48.840;9.314;2023-01-08T06:25:30;59.00;;;3.60;;
1308;SDS011;647;48.840;9.314;2023-01-08T06:27:57;57.47;;;3.00;;
1308;SDS011;647;48.840;9.314;2023-01-08T06:30:24;60.10;;;2.90;;
1308;SDS011;647;48.840;9.314;2023-01-08T06:32:54;57.97;;;2.80;;
1308;SDS011;647;48.840;9.314;2023-01-08T06:35:21;58.30;;;3.30;;
1308;SDS011;647;48.840;9.314;2023-01-08T06:37:48;57.37;;;2.90;;
1308;SDS011;647;48.840;9.314;2023-01-08T06:40:15;57.40;;;3.30;;
1308;SDS011;647;48.840;9.314;2023-01-08T06:42:44;57.33;;;2.70;;
1308;SDS011;647;48.840;9.314;2023-01-08T06:45:11;58.50;;;3.03;;
1308;SDS011;647;48.840;9.314;2023-01-08T06:47:38;57.37;;;3.00;;
1308;SDS011;647;48.840;9.314;2023-01-08T06:50:05;57.20;;;3.20;;
1308;SDS011;647;48.840;9.314;2023-01-08T06:52:33;58.73;;;3.10;;
1308;SDS011;647;48.840;9.314;2023-01-08T06:55:00;58.27;;;2.90;;
1308;SDS011;647;48.840;9.314;2023-01-08T06:57:28;57.40;;;2.80;;
1308;SDS011;647;48.840;9.314;2023-01-08T06:59:57;57.43;;;3.10;;
1308;SDS011;647;48.840;9.314;2023-01-08T07:02:24;57.67;;;2.90;;
1308;SDS011;647;48.840;9.314;2023-01-08T07:04:51;58.50;;;3.50;;
1308;SDS011;647;48.840;9.314;2023-01-08T07:07:18;59.70;;;3.50;;
1308;SDS011;647;48.840;9.314;2023-01-08T07:09:45;57.17;;;2.93;;
1308;SDS011;647;48.840;9.314;2023-01-08T07:12:12;57.70;;;2.73;;
1308;SDS011;647;48.840;9.314;2023-01-08T07:14:40;58.17;;;3.23;;
1308;SDS011;647;48.840;9.314;2023-01-08T07:17:08;57.60;;;3.07;;
1308;SDS011;647;48.840;9.314;2023-01-08T07:19:35;58.00;;;3.13;;
1308;SDS011;647;48.840;9.314;2023-01-08T07:22:03;58.10;;;3.00;;
1308;SDS011;647;48.840;9.314;2023-01-08T07:24:30;57.60;;;3.00;;
1308;SDS011;647;48.840;9.314;2023-01-08T07:26:57;58.37;;;3.30;;
1308;SDS011;647;48.840;9.314;2023-01-08T07:29:24;58.13;;;3.20;;
1308;SDS011;647;48.840;9.314;2023-01-08T07:31:51;57.60;;;2.77;;
1308;SDS011;647;48.840;9.314;2023-01-08T07:34:20;58.23;;;3.30;;
1308;SDS011;647;48.840;9.314;2023-01-08T07:36:47;57.73;;;3.10;;
1308;SDS011;647;48.840;9.314;2023-01-08T07:39:14;58.50;;;3.00;;
1308;SDS011;647;48.840;9.314;2023-01-08T07:41:41;58.27;;;3.13;;
1308;SDS011;647;48.840;9.314;2023-01-08T07:44:09;58.37;;;3.20;;
1308;SDS011;647;48.840;9.314;2023-01-08T07:46:36;57.70;;;3.00;;
1308;SDS011;647;48.840;9.314;2023-01-08T07:49:03;57.43;;;2.90;;
1308;SDS011;647;48.840;9.314;2023-01-08T07:51:31;57.43;;;3.10;;
1308;SDS011;647;48.840;9.314;2023-01-08T07:53:59;58.77;;;3.23;;
1308;SDS011;647;48.840;9.314;2023-01-08T07:56:26;57.57;;;3.10;;
1308;SDS011;647;48.840;9.314;2023-01-08T07:58:54;57.90;;;2.90;;
1308;SDS011;647;48.840;9.314;2023-01-08T08:01:21;57.90;;;2.80;;
1308;SDS011;647;48.840;9.314;2023-01-08T08:03:49;58.13;;;2.83;;
1308;SDS011;647;48.840;9.314;2023-01-08T08:06:17;57.83;;;2.63;;
1308;SDS011;647;48.840;9.314;2023-01-08T08:08:45;57.60;;;3.03;;
1308;SDS011;647;48.840;9.314;2023-01-08T08:11:12;57.37;;;2.80;;
1308;SDS011;647;48.840;9.314;2023-01-08T08:13:39;58.43;;;2.90;;
1308;SDS011;647;48.840;9.314;2023-01-08T08:16:09;61.50;;;3.20;;
1308;SDS011;647;48.840;9.314;2023-01-08T08:18:36;60.03;;;3.57;;
1308;SDS011;647;48.840;9.314;2023-01-08T08:21:03;58.60;;;3.10;;
1308;SDS011;647;48.840;9.314;2023-01-08T08:23:30;57.47;;;2.60;;
1308;SDS011;647;48.840;9.314;2023-01-08T08:25:59;58.67;;;2.90;;
1308;SDS011;647;48.840;9.314;2023-01-08T08:28:27;57.67;;;3.27;;
1308;SDS011;647;48.840;9.314;2023-01-08T08:30:54;57.60;;;2.90;;
1308;SDS011;647;48.840;9.314;2023-01-08T08:33:21;60.73;;;3.30;;
1308;SDS011;647;48.840;9.314;2023-01-08T08:35:49;59.80;;;3.50;;
1308;SDS011;647;48.840;9.314;2023-01-08T08:38:16;58.30;;;2.93;;
1308;SDS011;647;48.840;9.314;2023-01-08T08:40:43;57.87;;;3.27;;
1308;SDS011;647;48.840;9.314;2023-01-08T08:43:12;60.27;;;3.97;;
1308;SDS011;647;48.840;9.314;2023-01-08T08:45:39;57.93;;;3.50;;
1308;SDS011;647;48.840;9.314;2023-01-08T08:48:07;57.57;;;3.00;;
1308;SDS011;647;48.840;9.314;2023-01-08T08:50:35;58.30;;;3.23;;
1308;SDS011;647;48.840;9.314;2023-01-08T08:53:03;60.67;;;2.90;;
1308;SDS011;647;48.840;9.314;2023-01-08T08:55:31;57.90;;;2.90;;
1308;SDS011;647;48.840;9.314;2023-01-08T08:58:02;58.87;;;3.30;;
1308;SDS011;647;48.840;9.314;2023-01-08T09:00:31;58.33;;;2.93;;
1308;SDS011;647;48.840;9.314;2023-01-08T09:02:58;59.27;;;3.17;;
1308;SDS011;647;48.840;9.314;2023-01-08T09:05:25;57.90;;;3.30;;
1308;SDS011;647;48.840;9.314;2023-01-08T09:07:52;57.93;;;3.33;;
1308;SDS011;647;48.840;9.314;2023-01-08T09:10:20;57.90;;;3.03;;
1308;SDS011;647;48.840;9.314;2023-01-08T09:12:47;58.33;;;2.97;;
1308;SDS011;647;48.840;9.314;2023-01-08T09:15:14;58.07;;;3.00;;
1308;SDS011;647;48.840;9.314;2023-01-08T09:17:42;57.47;;;3.10;;
1308;SDS011;647;48.840;9.314;2023-01-08T09:20:10;57.23;;;2.30;;
1308;SDS011;647;48.840;9.314;2023-01-08T09:22:37;57.57;;;2.73;;
1308;SDS011;647;48.840;9.314;2023-01-08T09:25:04;57.20;;;2.83;;
1308;SDS011;647;48.840;9.314;2023-01-08T09:27:31;58.70;;;3.30;;
1308;SDS011;647;48.840;9.314;2023-01-08T09:29:58;58.10;;;2.87;;
1308;SDS011;647;48.840;9.314;2023-01-08T09:32:25;57.70;;;3.00;;
1308;SDS011;647;48.840;9.314;2023-01-08T09:34:54;57.67;;;3.03;;
1308;SDS011;647;48.840;9.314;2023-01-08T09:37:21;57.20;;;3.07;;
1308;SDS011;647;48.840;9.314;2023-01-08T09:39:48;58.20;;;3.67;;
1308;SDS011;647;48.840;9.314;2023-01-08T09:42:15;58.17;;;3.23;;
1308;SDS011;647;48.840;9.314;2023-01-08T09:44:46;58.00;;;3.20;;
1308;SDS011;647;48.840;9.314;2023-01-08T09:47:19;58.20;;;3.20;;
1308;SDS011;647;48.840;9.314;2023-01-08T09:49:47;59.30;;;3.93;;
1308;SDS011;647;48.840;9.314;2023-01-08T09:52:16;58.83;;;3.77;;
1308;SDS011;647;48.840;9.314;2023-01-08T09:54:43;59.60;;;4.30;;
1308;SDS011;647;48.840;9.314;2023-01-08T09:57:11;63.10;;;4.50;;
1308;SDS011;647;48.840;9.314;2023-01-08T09:59:39;57.97;;;3.10;;
1308;SDS011;647;48.840;9.314;2023-01-08T10:02:09;58.73;;;3.40;;
1308;SDS011;647;48.840;9.314;2023-01-08T10:04:38;57.50;;;3.23;;
1308;SDS011;647;48.840;9.314;2023-01-08T10:07:09;57.77;;;3.20;;
1308;SDS011;647;48.840;9.314;2023-01-08T10:09:38;58.27;;;3.13;;
1308;SDS011;647;48.840;9.314;2023-01-08T10:12:06;57.90;;;3.20;;
1308;SDS011;647;48.840;9.314;2023-01-08T10:14:36;58.30;;;3.30;;
1308;SDS011;647;48.840;9.314;2023-01-08T10:17:04;58.80;;;3.07;;
1308;SDS011;647;48.840;9.314;2023-01-08T10:19:33;57.53;;;3.03;;
1308;SDS011;647;48.840;9.314;2023-01-08T10:22:00;57.70;;;3.17;;
1308;SDS011;647;48.840;9.314;2023-01-08T10:24:31;57.60;;;2.93;;
1308;SDS011;647;48.840;9.314;2023-01-08T10:27:07;58.93;;;3.30;;
1308;SDS011;647;48.840;9.314;2023-01-08T10:29:34;57.47;;;3.27;;
1308;SDS011;647;48.840;9.314;2023-01-08T10:32:06;58.50;;;3.20;;
1308;SDS011;647;48.840;9.314;2023-01-08T10:34:38;59.50;;;3.20;;
1308;SDS011;647;48.840;9.314;2023-01-08T10:37:12;57.93;;;2.83;;
1308;SDS011;647;48.840;9.314;2023-01-08T10:39:43;58.77;;;3.80;;
1308;SDS011;647;48.840;9.314;2023-01-08T10:42:12;58.50;;;2.63;;
1308;SDS011;647;48.840;9.314;2023-01-08T10:44:44;58.40;;;3.27;;
1308;SDS011;647;48.840;9.314;2023-01-08T10:47:15;57.70;;;3.40;;
1308;SDS011;647;48.840;9.314;2023-01-08T10:49:42;58.73;;;3.57;;
1308;SDS011;647;48.840;9.314;2023-01-08T10:52:20;57.17;;;3.00;;
1308;SDS011;647;48.840;9.314;2023-01-08T10:54:48;59.07;;;3.10;;
1308;SDS011;647;48.840;9.314;2023-01-08T10:57:19;57.60;;;3.47;;
1308;SDS011;647;48.840;9.314;2023-01-08T10:59:47;57.53;;;2.73;;
1308;SDS011;647;48.840;9.314;2023-01-08T11:02:17;57.17;;;3.20;;
1308;SDS011;647;48.840;9.314;2023-01-08T11:04:46;58.63;;;3.20;;
1308;SDS011;647;48.840;9.314;2023-01-08T11:07:15;58.37;;;2.90;;
1308;SDS011;647;48.840;9.314;2023-01-08T11:09:45;57.70;;;3.00;;
1308;SDS011;647;48.840;9.314;2023-01-08T11:14:50;59.30;;;3.30;;
1308;SDS011;647;48.840;9.314;2023-01-08T11:17:17;57.90;;;3.00;;
1308;SDS011;647;48.840;9.314;2023-01-08T11:19:44;57.60;;;3.10;;
1308;SDS011;647;48.840;9.314;2023-01-08T11:22:18;57.80;;;3.13;;
1308;SDS011;647;48.840;9.314;2023-01-08T11:24:46;58.33;;;2.77;;
1308;SDS011;647;48.840;9.314;2023-01-08T11:27:14;58.00;;;2.70;;
1308;SDS011;647;48.840;9.314;2023-01-08T11:29:42;59.73;;;3.10;;
1308;SDS011;647;48.840;9.314;2023-01-08T11:32:22;59.80;;;3.13;;
1308;SDS011;647;48.840;9.314;2023-01-08T11:34:53;57.80;;;2.50;;
1308;SDS011;647;48.840;9.314;2023-01-08T11:37:21;57.40;;;2.50;;
1308;SDS011;647;48.840;9.314;2023-01-08T11:39:50;57.83;;;2.63;;
1308;SDS011;647;48.840;9.314;2023-01-08T11:42:19;58.27;;;3.20;;
1308;SDS011;647;48.840;9.314;2023-01-08T11:44:56;57.47;;;2.67;;
1308;SDS011;647;48.840;9.314;2023-01-08T11:47:34;57.27;;;2.50;;
1308;SDS011;647;48.840;9.314;2023-01-08T11:50:09;58.33;;;3.00;;
1308;SDS011;647;48.840;9.314;2023-01-08T11:52:44;57.43;;;2.87;;
1308;SDS011;647;48.840;9.314;2023-01-08T11:55:22;57.53;;;2.80;;
1308;SDS011;647;48.840;9.314;2023-01-08T11:57:54;57.77;;;2.97;;
1308;SDS011;647;48.840;9.314;2023-01-08T12:00:29;57.97;;;2.87;;
1308;SDS011;647;48.840;9.314;2023-01-08T12:02:59;58.67;;;3.00;;
1308;SDS011;647;48.840;9.314;2023-01-08T12:05:28;57.90;;;3.00;;
1308;SDS011;647;48.840;9.314;2023-01-08T12:08:00;57.57;;;2.87;;
1308;SDS011;647;48.840;9.314;2023-01-08T12:10:29;58.80;;;3.53;;
1308;SDS011;647;48.840;9.314;2023-01-08T12:13:03;57.33;;;3.10;;
1308;SDS011;647;48.840;9.314;2023-01-08T12:15:38;57.53;;;2.70;;
1308;SDS011;647;48.840;9.314;2023-01-08T12:18:24;58.00;;;2.73;;
1308;SDS011;647;48.840;9.314;2023-01-08T12:20:56;58.10;;;2.73;;
1308;SDS011;647;48.840;9.314;2023-01-08T12:23:31;60.20;;;3.17;;
1308;SDS011;647;48.840;9.314;2023-01-08T12:26:05;57.13;;;2.60;;
1308;SDS011;647;48.840;9.314;2023-01-08T12:28:39;57.20;;;2.40;;
1308;SDS011;647;48.840;9.314;2023-01-08T12:31:14;57.07;;;2.70;;
1308;SDS011;647;48.840;9.314;2023-01-08T12:33:48;57.27;;;2.70;;
1308;SDS011;647;48.840;9.314;2023-01-08T12:36:17;57.20;;;2.53;;
1308;SDS011;647;48.840;9.314;2023-01-08T12:38:49;57.33;;;2.60;;
1308;SDS011;647;48.840;9.314;2023-01-08T12:41:18;59.07;;;3.40;;
1308;SDS011;647;48.840;9.314;2023-01-08T12:43:48;58.30;;;3.07;;
1308;SDS011;647;48.840;9.314;2023-01-08T12:46:18;57.73;;;2.73;;
1308;SDS011;647;48.840;9.314;2023-01-08T12:48:46;57.70;;;2.63;;
1308;SDS011;647;48.840;9.314;2023-01-08T12:51:16;57.50;;;2.77;;
1308;SDS011;647;48.840;9.314;2023-01-08T12:53:48;57.90;;;2.83;;
1308;SDS011;647;48.840;9.314;2023-01-08T12:56:20;57.33;;;2.60;;
1308;SDS011;647;48.840;9.314;2023-01-08T12:58:59;57.20;;;2.47;;
1308;SDS011;647;48.840;9.314;2023-01-08T13:01:33;57.70;;;2.70;;
1308;SDS011;647;48.840;9.314;2023-01-08T13:04:01;56.93;;;2.50;;
1308;SDS011;647;48.840;9.314;2023-01-08T13:06:31;57.77;;;2.70;;
1308;SDS011;647;48.840;9.314;2023-01-08T13:08:58;58.20;;;2.60;;
1308;SDS011;647;48.840;9.314;2023-01-08T13:11:27;57.37;;;2.60;;
1308;SDS011;647;48.840;9.314;2023-01-08T13:13:58;57.87;;;2.53;;
1308;SDS011;647;48.840;9.314;2023-01-08T13:16:26;57.67;;;2.70;;
1308;SDS011;647;48.840;9.314;2023-01-08T13:18:54;57.80;;;2.57;;
1308;SDS011;647;48.840;9.314;2023-01-08T13:21:37;57.80;;;2.60;;
1308;SDS011;647;48.840;9.314;2023-01-08T13:24:06;57.80;;;2.93;;
1308;SDS011;647;48.840;9.314;2023-01-08T13:26:34;57.70;;;3.17;;
1308;SDS011;647;48.840;9.314;2023-01-08T13:29:05;58.20;;;2.97;;
1308;SDS011;647;48.840;9.314;2023-01-08T13:31:37;57.27;;;2.70;;
1308;SDS011;647;48.840;9.314;2023-01-08T13:34:16;57.70;;;2.80;;
1308;SDS011;647;48.840;9.314;2023-01-08T13:36:54;58.20;;;2.37;;
1308;SDS011;647;48.840;9.314;2023-01-08T13:39:22;57.37;;;2.87;;
1308;SDS011;647;48.840;9.314;2023-01-08T13:41:58;58.53;;;3.27;;
1308;SDS011;647;48.840;9.314;2023-01-08T13:44:27;59.27;;;2.70;;
1308;SDS011;647;48.840;9.314;2023-01-08T13:46:55;57.40;;;2.43;;
1308;SDS011;647;48.840;9.314;2023-01-08T13:49:24;57.27;;;2.60;;
1308;SDS011;647;48.840;9.314;2023-01-08T13:51:52;58.80;;;2.73;;
1308;SDS011;647;48.840;9.314;2023-01-08T13:54:23;57.63;;;2.50;;
1308;SDS011;647;48.840;9.314;2023-01-08T13:56:52;57.60;;;2.50;;
1308;SDS011;647;48.840;9.314;2023-01-08T13:59:23;57.30;;;2.53;;
1308;SDS011;647;48.840;9.314;2023-01-08T14:01:52;57.30;;;2.63;;
1308;SDS011;647;48.840;9.314;2023-01-08T14:04:20;58.80;;;3.80;;
1308;SDS011;647;48.840;9.314;2023-01-08T14:06:47;59.40;;;2.70;;
1308;SDS011;647;48.840;9.314;2023-01-08T14:09:18;57.90;;;2.87;;
1308;SDS011;647;48.840;9.314;2023-01-08T14:11:47;57.57;;;2.87;;
1308;SDS011;647;48.840;9.314;2023-01-08T14:14:15;58.00;;;3.03;;
1308;SDS011;647;48.840;9.314;2023-01-08T14:16:43;58.17;;;2.77;;
1308;SDS011;647;48.840;9.314;2023-01-08T14:19:12;58.20;;;2.90;;
1308;SDS011;647;48.840;9.314;2023-01-08T14:21:40;58.30;;;3.13;;
1308;SDS011;647;48.840;9.314;2023-01-08T14:24:11;57.87;;;2.63;;
1308;SDS011;647;48.840;9.314;2023-01-08T14:26:41;58.07;;;2.80;;
1308;SDS011;647;48.840;9.314;2023-01-08T14:29:12;58.07;;;2.57;;
1308;SDS011;647;48.840;9.314;2023-01-08T14:31:44;57.90;;;2.97;;
1308;SDS011;647;48.840;9.314;2023-01-08T14:34:13;57.83;;;2.47;;
1308;SDS011;647;48.840;9.314;2023-01-08T14:36:40;57.67;;;2.77;;
1308;SDS011;647;48.840;9.314;2023-01-08T14:39:10;57.90;;;2.87;;
1308;SDS011;647;48.840;9.314;2023-01-08T14:41:38;57.10;;;2.43;;
1308;SDS011;647;48.840;9.314;2023-01-08T14:44:25;57.80;;;2.70;;
1308;SDS011;647;48.840;9.314;2023-01-08T14:46:52;57.60;;;2.60;;
1308;SDS011;647;48.840;9.314;2023-01-08T14:49:21;58.40;;;2.57;;
1308;SDS011;647;48.840;9.314;2023-01-08T14:51:48;57.50;;;2.70;;
1308;SDS011;647;48.840;9.314;2023-01-08T14:54:17;57.70;;;2.37;;
1308;SDS011;647;48.840;9.314;2023-01-08T14:56:46;57.63;;;2.60;;
1308;SDS011;647;48.840;9.314;2023-01-08T14:59:14;57.80;;;2.50;;
1308;SDS011;647;48.840;9.314;2023-01-08T15:01:48;57.30;;;2.33;;
1308;SDS011;647;48.840;9.314;2023-01-08T15:04:17;57.30;;;2.30;;
1308;SDS011;647;48.840;9.314;2023-01-08T15:06:45;57.70;;;2.53;;
1308;SDS011;647;48.840;9.314;2023-01-08T15:09:19;57.73;;;2.90;;
1308;SDS011;647;48.840;9.314;2023-01-08T15:11:47;58.00;;;3.20;;
1308;SDS011;647;48.840;9.314;2023-01-08T15:14:19;56.67;;;2.67;;
1308;SDS011;647;48.840;9.314;2023-01-08T15:16:50;57.80;;;2.90;;
1308;SDS011;647;48.840;9.314;2023-01-08T15:19:20;58.83;;;3.43;;
1308;SDS011;647;48.840;9.314;2023-01-08T15:21:49;58.10;;;3.27;;
1308;SDS011;647;48.840;9.314;2023-01-08T15:24:20;57.37;;;2.97;;
1308;SDS011;647;48.840;9.314;2023-01-08T15:26:48;57.80;;;3.20;;
1308;SDS011;647;48.840;9.314;2023-01-08T15:29:16;58.07;;;3.00;;